• Join FlightAware (Why Join?)
  • Login
  • US Flag 
01:41AM EDT


 

Airport Tracker/Info


-or-


 

Live Flight TrackerFlight Track Log ✈ ASQ5941 ✈ 12-Apr-2013 ✈ KORD - KAVP

Flight Track Log - Related Links

Times and Time Zones

All times are in EDT time to prevent confusion due to time zone crossing. See the ASQ5941 flight status page for this flight to view local times or setup timezone preferences in your user account.

Time Position Orientation Groundspeed Altitude Reporting Facility
EDT Latitude Longitude Course Direction KTS MPH feet Rate Location/Type
03:53PM 42.0019 -87.9442 90° East 159 183 2,000  Level Chicago Center
03:54PM 42.0531 -87.8969 34° Northeast 226 260 4,700 1,860 Climbing Chicago Center
03:55PM 42.0661 -87.8061 79° East 261 300 5,900 1,620 Climbing Chicago Center
03:56PM 42.0617 -87.2907 78° East  Level FlightAware Approximate
03:56PM 42.0731 -87.6953 85° East 290 334 8,100  Level Chicago Center
03:57PM 42.0856 -87.1362 77° East  Level FlightAware Approximate
03:57PM 42.0800 -87.5817 85° East 303 349 9,700  Level Chicago Center
03:58PM 42.1024 -86.9808 80° East  Level FlightAware Approximate
03:58PM 42.0881 -87.4600 85° East 323 372 11,600  Level Chicago Center
03:59PM 42.1167 -86.8318 90° East  Level FlightAware Approximate
03:59PM 42.0967 -87.3297 85° East 346 398 12,600  Level Chicago Center
04:00PM 42.1064 -87.1614 85° East 376 433 13,800 1,020 Climbing Chicago Center
04:01PM 42.1156 -87.0153 85° East 391 450 14,800 960 Climbing Chicago Center
04:02PM 42.1211 -86.8664 87° East 396 456 15,800 960 Climbing Chicago Center
04:03PM 42.1264 -86.7122 87° East 408 470 16,800 960 Climbing Chicago Center
04:04PM 42.1303 -86.5503 88° East 427 491 17,800 1,020 Climbing Chicago Center
04:05PM 42.1361 -86.3928 87° East 424 488 19,000 1,020 Climbing Chicago Center
04:06PM 42.1408 -86.2311 88° East 429 494 20,000 1,020 Climbing Chicago Center
04:07PM 42.1433 -86.0369 89° East 432 497 21,200 960 Climbing Chicago Center
04:08PM 42.1422 -85.8869 91° East 436 502 22,100 900 Climbing Chicago Center
04:09PM 42.1403 -85.7244 91° East 438 504 23,100 1,080 Climbing Chicago Center
04:10PM 42.1389 -85.5303 90° East 435 501 24,400 1,140 Climbing Chicago Center
04:11PM 42.1381 -85.3669 90° East 437 503 25,500 1,020 Climbing Chicago Center
04:12PM 42.1378 -85.3133 90° East 438 504 25,900 1,200 Climbing Cleveland Center
04:13PM 42.1356 -85.1564 91° East 438 504 27,200 1,200 Climbing Cleveland Center
04:14PM 42.1353 -85.0050 90° East 419 482 28,300 1,020 Climbing Cleveland Center
04:15PM 42.1308 -84.8478 92° East 413 475 29,300 900 Climbing Cleveland Center
04:16PM 42.1281 -84.6936 91° East 413 475 30,200 900 Climbing Cleveland Center
04:17PM 42.1256 -84.5339 91° East 413 475 31,200 960 Climbing Cleveland Center
04:18PM 42.1347 -84.3803 85° East 418 481 32,200 1,020 Climbing Cleveland Center
04:19PM 42.1511 -84.1992 83° East 425 489 33,300 960 Climbing Cleveland Center
04:20PM 42.1686 -84.0378 82° East 437 503 34,200 780 Climbing Cleveland Center
04:21PM 42.1839 -83.8731 83° East 437 503 34,900 360 Climbing Cleveland Center
04:22PM 42.1822 -83.7047 91° East 442 509 35,000  Climbing Cleveland Center
04:23PM 42.1761 -83.5447 93° East 442 509 35,000  Level Cleveland Center
04:24PM 42.1706 -83.3483 92° East 464 534 35,000  Level Cleveland Center
04:25PM 42.1644 -83.1575 92° East 498 573 35,000  Level Cleveland Center
04:26PM 42.1581 -82.9725 93° East 498 573 35,000  Level Cleveland Center
04:27PM 42.1453 -82.7872 95° East 498 573 35,000  Level Cleveland Center
04:28PM 42.1422 -82.6022 91° East 498 573 35,000  Level Cleveland Center
04:29PM 42.1372 -82.4117 92° East 498 573 35,000  Level Cleveland Center
04:30PM 42.1294 -82.2294 93° East 498 573 35,000  Level Cleveland Center
04:31PM 42.1217 -82.0389 93° East 498 573 35,000  Level Cleveland Center
04:32PM 42.1153 -81.8736 93° East 503 579 35,000  Level Cleveland Center
04:33PM 42.1069 -81.6831 93° East 504 580 35,000  Level Cleveland Center
04:34PM 42.0981 -81.4925 94° East 504 580 35,000  Level Cleveland Center
04:35PM 42.0889 -81.3050 94° East 504 580 35,000  Level Cleveland Center
04:36PM 42.0775 -81.0950 94° East 504 580 35,000  Level Cleveland Center
04:37PM 42.0658 -80.9047 95° East 504 580 35,000  Level Cleveland Center
04:38PM 42.0578 -80.7147 93° East 499 574 35,000  Level Cleveland Center
04:39PM 42.0475 -80.5272 94° East 499 574 35,000  Level Cleveland Center
04:40PM 42.0389 -80.3400 93° East 499 574 35,000  Level Cleveland Center
04:41PM 42.0281 -80.1722 95° East 499 574 35,000  Level Cleveland Center
04:42PM 42.0147 -79.9656 95° East 505 581 35,000 -240 Level Cleveland Center
04:43PM 42.0031 -79.7756 95° East 505 581 34,600 -540 Descending Cleveland Center
04:44PM 41.9911 -79.5886 95° East 505 581 34,000 -300 Descending Cleveland Center
04:45PM 41.9789 -79.3989 95° East 505 581 34,000  Level Cleveland Center
04:46PM 41.9642 -79.2092 96° East 505 581 34,000 -480 Level Cleveland Center
04:47PM 41.9514 -79.0197 95° East 505 581 33,100 -900 Descending Cleveland Center
04:48PM 41.9383 -78.8247 95° East 505 581 32,200 -960 Descending Cleveland Center
04:49PM 41.9247 -78.6353 95° East 511 588 31,200 -960 Descending Cleveland Center
04:50PM 41.9108 -78.4458 96° East 516 594 30,300 -1,260 Descending Cleveland Center
04:51PM 41.8947 -78.2567 96° East 516 594 28,700 -2,100 Descending Cleveland Center
04:52PM 41.8769 -77.9914 95° East 483 556 25,100 -2,040 Descending New York Center
04:53PM 41.8481 -77.8128 102° East 488 562 23,600 -1,080 Descending New York Center
04:54PM 41.7903 -77.6619 117° Southeast 471 542 23,000 -300 Descending New York Center
04:55PM 41.7303 -77.5083 118° Southeast 465 535 23,000  Level New York Center
04:56PM 41.6822 -77.3258 109° East 465 535 23,000 -360 Level New York Center
04:57PM 41.6625 -77.1517 99° East 471 542 22,400 -1,440 Descending New York Center
04:58PM 41.6447 -76.9722 97° East 471 542 20,200 -2,460 Descending New York Center
04:59PM 41.6267 -76.7986 98° East 476 548 17,500 -2,940 Descending New York Center
05:00PM 41.6111 -76.6528 98° East 460 529 14,400 -3,000 Descending New York Center
05:01PM 41.5856 -76.4953 102° East 409 471 11,600 -1,920 Descending New York Center
05:02PM 41.5517 -76.3731 110° East 367 422 10,600 -1,020 Descending New York Center
05:03PM 41.5214 -76.2625 110° East 330 380 9,600 -1,260 Descending New York Center
05:04PM 41.4944 -76.1689 111° Southeast 305 351 8,100 -1,560 Descending New York Center
05:05PM 41.4411 -76.1092 140° Southeast 249 287 6,500 -1,620 Descending New York Center
05:06PM 41.3672 -76.0814 164° South 249 287 4,900 -1,200 Descending New York Center
05:07PM 41.3019 -76.0514 161° South 249 287 4,100 -480 Descending New York Center
05:08PM 41.2467 -76.0278 162° South 243 280 4,000 -60 Descending New York Center
05:09PM 41.1903 -75.9847 150° Southeast 238 274 4,000  Level New York Center
05:10PM 41.1692 -75.8975 108° East 223 257 4,000  Level New York Center